46AK weather

Bear Cove Farm Airport
Homer, Alaska, United States

Public forecast

Using degrees Fahrenheit for public forecast. Weather courtesy of forecast.io.

METAR (pilot weather report)

Closest report is Homer Airport, 14.6 nm (27.1 km) WSW. Retrieved 2019/09/15 07:53 UTC (56 minutes ago):

PAHO 150753Z AUTO 09006KT 10SM CLR 10/08 RMK AO2 SLPNO T01000083 PWINO TSNO $

TAF (pilot weather forecast)

Closest forecast is Homer Airport, 14.6 nm (27.1 km) WSW. Retrieved 2019/09/15 06:45 UTC (2 hours ago):

TAF PAHO 150542Z 1506/1606 VRB06KT P6SM SCT200 FM151700 12006KT P6SM VCSH SCT020 OVC040 FM151900 12008G15KT 5SM -RA BR BKN010 OVC035 FM160100 34008G12KT P6SM -SHRA BKN025 BKN050